Time;durP1;ratioP1;P1;durP2;ratioP2;P2;SDS_P1;SDS_P2;PMS_P1;PMS_P2;Temp;Humidity;BMP_temperature;BMP_pressure;BME280_temperature;BME280_humidity;BME280_pressure;Samples;Min_cycle;Max_cycle;Signal;HPM_P1;HPM_P2
2024/01/27 00:01:51;;;;;;;35.50;21.83;;;-2.70;99.90;;;;;;5060268;28;20021;-85
2024/01/27 00:04:17;;;;;;;35.47;20.88;;;-2.70;99.90;;;;;;5064307;28;20075;-86
2024/01/27 00:06:43;;;;;;;31.95;18.98;;;-2.70;99.90;;;;;;5070811;28;20056;-85
2024/01/27 00:09:08;;;;;;;29.38;18.95;;;-2.70;99.90;;;;;;5072498;28;20049;-84
2024/01/27 00:11:34;;;;;;;23.10;13.93;;;-2.70;99.90;;;;;;5065246;28;20122;-82
2024/01/27 00:14:01;;;;;;;27.08;17.42;;;-2.70;99.90;;;;;;5071669;28;20078;-81
2024/01/27 00:16:26;;;;;;;30.83;17.50;;;-2.70;99.90;;;;;;5070982;28;20024;-80
2024/01/27 00:18:53;;;;;;;34.17;19.45;;;-2.80;99.90;;;;;;5071601;28;20225;-80
2024/01/27 00:21:19;;;;;;;31.55;19.45;;;-2.80;99.90;;;;;;5067929;28;20155;-80
2024/01/27 00:23:45;;;;;;;31.02;20.33;;;-2.80;99.90;;;;;;5069442;28;20499;-80
2024/01/27 00:26:11;;;;;;;33.97;20.48;;;-2.80;99.90;;;;;;5071326;28;20106;-80
2024/01/27 00:28:37;;;;;;;29.50;19.58;;;-2.80;99.90;;;;;;5067381;28;20163;-80
2024/01/27 00:31:03;;;;;;;27.55;19.27;;;-2.80;99.90;;;;;;5069800;28;20393;-81
2024/01/27 00:33:29;;;;;;;30.65;19.27;;;-2.80;99.90;;;;;;5071180;28;20017;-80
2024/01/27 00:35:55;;;;;;;27.83;19.00;;;-2.80;99.90;;;;;;5078871;28;20020;-81
2024/01/27 00:38:20;;;;;;;32.63;19.58;;;-2.80;99.90;;;;;;5073758;28;20028;-80
2024/01/27 00:40:46;;;;;;;37.17;20.13;;;-2.80;99.90;;;;;;5071013;28;20021;-80
2024/01/27 00:43:15;;;;;;;30.00;19.80;;;-2.70;99.90;;;;;;5072646;28;20028;-81
2024/01/27 00:45:41;;;;;;;31.75;21.27;;;-2.70;99.90;;;;;;5074132;28;20474;-81
2024/01/27 00:48:07;;;;;;;32.85;23.15;;;-2.70;99.90;;;;;;5072069;28;20044;-81
2024/01/27 00:50:33;;;;;;;31.55;20.00;;;-2.70;99.90;;;;;;5073456;28;20017;-81
2024/01/27 00:52:58;;;;;;;33.80;20.92;;;-2.70;99.90;;;;;;5068043;28;20025;-82
2024/01/27 00:55:25;;;;;;;31.70;19.48;;;-2.80;99.90;;;;;;5069325;28;20433;-80
2024/01/27 00:57:51;;;;;;;28.35;19.02;;;-2.80;99.90;;;;;;5076165;28;20066;-81
2024/01/27 01:00:17;;;;;;;30.13;19.35;;;-2.80;99.90;;;;;;5069989;28;20020;-81
2024/01/27 01:02:43;;;;;;;35.83;20.88;;;-2.80;99.90;;;;;;5074925;28;20067;-80
2024/01/27 01:05:08;;;;;;;29.40;19.17;;;-2.80;99.90;;;;;;5065841;28;20483;-81
2024/01/27 01:07:34;;;;;;;28.63;19.65;;;-2.80;99.90;;;;;;5071826;28;20045;-82
2024/01/27 01:10:00;;;;;;;35.88;20.67;;;-2.80;99.90;;;;;;5074852;28;20490;-81
2024/01/27 01:12:26;;;;;;;29.52;19.05;;;-2.80;99.90;;;;;;5076028;28;20096;-81
2024/01/27 01:14:53;;;;;;;32.70;20.13;;;-2.80;99.90;;;;;;5070353;28;20080;-80
2024/01/27 01:17:18;;;;;;;26.67;19.37;;;-2.80;99.90;;;;;;5076354;28;20027;-82
2024/01/27 01:19:44;;;;;;;31.67;18.38;;;-2.80;99.90;;;;;;5085541;28;20092;-80
2024/01/27 01:22:10;;;;;;;25.38;17.33;;;-2.80;99.90;;;;;;5083898;28;20498;-80
2024/01/27 01:24:37;;;;;;;25.55;15.40;;;-2.80;99.90;;;;;;5073151;28;20033;-81
2024/01/27 01:27:03;;;;;;;24.98;15.90;;;-2.80;99.90;;;;;;5078674;28;20023;-82
2024/01/27 01:29:29;;;;;;;22.05;15.63;;;-2.80;99.90;;;;;;5068927;28;20466;-83
2024/01/27 01:31:55;;;;;;;24.52;15.40;;;-2.80;99.90;;;;;;5076946;28;20012;-82
2024/01/27 01:34:21;;;;;;;28.17;16.77;;;-2.80;99.90;;;;;;5082871;28;20021;-81
2024/01/27 01:36:48;;;;;;;27.45;16.63;;;-2.80;99.90;;;;;;5091437;28;20031;-82
2024/01/27 01:39:14;;;;;;;27.27;19.60;;;-2.80;99.90;;;;;;5075888;28;20140;-82
2024/01/27 01:41:40;;;;;;;24.23;15.63;;;-2.80;99.90;;;;;;5067367;28;20021;-82
2024/01/27 01:44:07;;;;;;;23.90;15.37;;;-2.70;99.90;;;;;;5075793;28;20080;-81
2024/01/27 01:46:33;;;;;;;24.90;18.05;;;-2.70;99.90;;;;;;5074854;28;20073;-82
2024/01/27 01:49:00;;;;;;;31.27;17.55;;;-2.70;99.90;;;;;;5086409;28;20361;-82
2024/01/27 01:51:27;;;;;;;30.43;19.10;;;-2.70;99.90;;;;;;5074923;28;20031;-82
2024/01/27 01:53:57;;;;;;;28.55;18.77;;;-2.70;99.90;;;;;;5085263;28;20325;-82
2024/01/27 01:56:24;;;;;;;30.30;18.15;;;-2.70;99.90;;;;;;5074420;28;20040;-83
2024/01/27 01:58:50;;;;;;;30.48;19.38;;;-2.70;99.90;;;;;;5072863;28;20392;-82
2024/01/27 02:01:21;;;;;;;29.00;18.85;;;-2.60;99.90;;;;;;5075825;28;20031;-82
2024/01/27 02:03:56;;;;;;;24.92;15.43;;;-2.70;99.90;;;;;;5072833;28;20450;-82
2024/01/27 02:06:21;;;;;;;26.35;17.02;;;-2.60;99.90;;;;;;5084503;28;20074;-81
2024/01/27 02:08:48;;;;;;;27.73;16.88;;;-2.70;99.90;;;;;;5072005;28;20048;-82
2024/01/27 02:11:14;;;;;;;27.05;16.60;;;-2.70;99.90;;;;;;5073953;28;20036;-82
2024/01/27 02:13:40;;;;;;;28.50;19.45;;;-2.70;99.90;;;;;;5073850;28;20025;-83
2024/01/27 02:16:06;;;;;;;26.30;16.02;;;-2.80;99.90;;;;;;5073661;28;20052;-83
2024/01/27 02:18:31;;;;;;;29.65;19.98;;;-2.80;99.90;;;;;;5074309;28;20059;-82
2024/01/27 02:20:57;;;;;;;31.77;19.13;;;-2.80;99.90;;;;;;5074297;28;20474;-81
2024/01/27 02:23:23;;;;;;;29.55;16.08;;;-2.90;99.90;;;;;;5065779;28;20048;-81
2024/01/27 02:25:50;;;;;;;28.92;19.00;;;-2.90;99.90;;;;;;5055169;28;20017;-80
2024/01/27 02:28:16;;;;;;;33.03;22.75;;;-2.90;99.90;;;;;;5068921;28;20040;-80
2024/01/27 02:30:42;;;;;;;22.48;14.68;;;-2.90;99.90;;;;;;5068954;28;20028;-81
2024/01/27 02:33:08;;;;;;;22.88;15.52;;;-2.90;99.90;;;;;;5073821;28;20367;-80
2024/01/27 02:35:34;;;;;;;28.00;17.52;;;-3.00;99.90;;;;;;5068770;28;20025;-82
2024/01/27 02:38:00;;;;;;;25.33;17.27;;;-3.00;99.90;;;;;;5072072;28;20362;-81
2024/01/27 02:40:26;;;;;;;19.63;14.57;;;-3.10;99.90;;;;;;5068820;28;20020;-82
2024/01/27 02:42:52;;;;;;;28.58;16.92;;;-3.10;99.90;;;;;;5073211;28;20099;-81
2024/01/27 02:45:18;;;;;;;25.30;16.98;;;-3.20;99.90;;;;;;5073557;28;20023;-81
2024/01/27 02:47:44;;;;;;;23.77;14.15;;;-3.20;99.90;;;;;;5080474;28;20021;-81
2024/01/27 02:50:10;;;;;;;25.33;18.33;;;-3.10;99.90;;;;;;5073403;28;20086;-83
2024/01/27 02:52:36;;;;;;;31.40;17.85;;;-3.20;99.90;;;;;;5069952;28;20104;-82
2024/01/27 02:55:02;;;;;;;30.13;19.30;;;-3.30;99.90;;;;;;5061661;28;20560;-82
2024/01/27 02:57:28;;;;;;;28.08;18.48;;;-3.30;99.90;;;;;;5072978;28;20024;-82
2024/01/27 02:59:54;;;;;;;23.52;16.38;;;-3.30;99.90;;;;;;5068613;28;20023;-82
2024/01/27 03:02:20;;;;;;;23.48;16.85;;;-3.40;99.90;;;;;;5071683;28;20034;-83
2024/01/27 03:04:46;;;;;;;28.20;18.13;;;-3.40;99.90;;;;;;5069490;28;20013;-82
2024/01/27 03:07:12;;;;;;;30.50;17.65;;;-3.50;99.90;;;;;;5075307;28;20485;-81
2024/01/27 03:09:37;;;;;;;26.92;15.88;;;-3.50;99.90;;;;;;5072554;28;20503;-81
2024/01/27 03:12:04;;;;;;;16.83;12.23;;;-3.40;99.90;;;;;;5062751;28;20023;-80
2024/01/27 03:14:30;;;;;;;26.63;17.40;;;-3.40;99.90;;;;;;5072368;28;20355;-82
2024/01/27 03:16:56;;;;;;;28.25;16.60;;;-3.40;99.90;;;;;;5072148;28;20012;-81
2024/01/27 03:19:22;;;;;;;26.73;16.83;;;-3.50;99.90;;;;;;5071193;28;20039;-82
2024/01/27 03:21:48;;;;;;;38.72;21.00;;;-3.50;99.90;;;;;;5066573;28;20503;-82
2024/01/27 03:24:14;;;;;;;29.88;16.30;;;-3.40;99.90;;;;;;5063722;28;20406;-80
2024/01/27 03:26:39;;;;;;;26.35;15.25;;;-3.40;99.90;;;;;;5068735;28;20539;-81
2024/01/27 03:29:05;;;;;;;27.67;17.73;;;-3.40;99.90;;;;;;5060636;28;20066;-81
2024/01/27 03:31:32;;;;;;;26.88;17.55;;;-3.30;99.90;;;;;;5072503;28;20016;-80
2024/01/27 03:34:02;;;;;;;31.57;17.83;;;-3.30;99.90;;;;;;5071214;28;20035;-80
2024/01/27 03:36:28;;;;;;;26.17;16.55;;;-3.30;99.90;;;;;;5070992;28;20809;-82
2024/01/27 03:38:56;;;;;;;26.60;17.10;;;-3.20;99.90;;;;;;5071162;28;20374;-81
2024/01/27 03:41:21;;;;;;;28.92;17.15;;;-3.20;99.90;;;;;;5072188;28;20027;-82
2024/01/27 03:43:47;;;;;;;25.08;16.10;;;-3.10;99.90;;;;;;5077169;28;20489;-83
2024/01/27 03:46:13;;;;;;;23.88;15.25;;;-3.10;99.90;;;;;;5072894;28;20028;-81
2024/01/27 03:48:39;;;;;;;26.30;16.88;;;-3.10;99.90;;;;;;5078821;28;20029;-82
2024/01/27 03:51:05;;;;;;;26.95;15.82;;;-3.00;99.90;;;;;;5077048;28;20381;-82
2024/01/27 03:53:31;;;;;;;24.08;15.77;;;-3.00;99.90;;;;;;5064251;28;20121;-81
2024/01/27 03:56:04;;;;;;;21.55;13.75;;;-3.00;99.90;;;;;;5061598;28;20386;-82
2024/01/27 03:58:30;;;;;;;21.80;13.32;;;-3.10;99.90;;;;;;5067268;28;20049;-83
2024/01/27 04:00:57;;;;;;;22.73;13.97;;;-3.10;99.90;;;;;;5066033;28;20028;-83
2024/01/27 04:03:23;;;;;;;20.40;13.70;;;-3.10;99.90;;;;;;5072186;28;20262;-82
2024/01/27 04:05:49;;;;;;;21.75;12.77;;;-3.10;99.90;;;;;;5061117;28;20020;-83
2024/01/27 04:08:15;;;;;;;19.77;13.15;;;-3.10;99.90;;;;;;5071878;28;20498;-83
2024/01/27 04:10:41;;;;;;;17.60;11.15;;;-3.10;99.90;;;;;;5072016;28;20023;-82
2024/01/27 04:13:07;;;;;;;19.80;15.35;;;-3.30;99.90;;;;;;5071833;28;20024;-83
2024/01/27 04:15:38;;;;;;;22.38;13.18;;;-3.40;99.90;;;;;;5072098;28;20025;-82
2024/01/27 04:18:05;;;;;;;20.50;12.50;;;-3.40;99.90;;;;;;5065492;28;20021;-84
2024/01/27 04:20:31;;;;;;;;;;;-3.50;99.90;;;;;;5083030;28;20029;-82
2024/01/27 04:22:57;;;;;;;15.13;10.50;;;-3.50;99.90;;;;;;5073329;28;19954;-82
2024/01/27 04:25:23;;;;;;;20.58;11.80;;;-3.50;99.90;;;;;;5070623;28;20143;-83
2024/01/27 04:27:49;;;;;;;22.35;13.27;;;-3.50;99.90;;;;;;5072057;28;20032;-82
2024/01/27 04:30:15;;;;;;;19.30;11.80;;;-3.40;99.90;;;;;;5064678;28;20023;-81
2024/01/27 04:32:41;;;;;;;15.82;11.02;;;-3.40;99.90;;;;;;5076651;28;20021;-81
2024/01/27 04:35:11;;;;;;;18.55;11.60;;;-3.30;99.90;;;;;;5072532;28;20032;-82
2024/01/27 04:37:37;;;;;;;16.15;10.70;;;-3.30;99.90;;;;;;5068447;28;20428;-83
2024/01/27 04:40:07;;;;;;;16.63;12.38;;;-3.30;99.90;;;;;;5075024;28;20116;-82
2024/01/27 04:42:40;;;;;;;18.35;11.80;;;-3.20;99.90;;;;;;5076039;28;20032;-82
2024/01/27 04:45:07;;;;;;;19.75;11.50;;;-3.20;99.90;;;;;;5076035;28;20017;-81
2024/01/27 04:47:32;;;;;;;16.17;11.63;;;-3.20;99.90;;;;;;5075779;28;20040;-81
2024/01/27 04:49:58;;;;;;;22.23;13.30;;;-3.10;99.90;;;;;;5075498;28;20389;-81
2024/01/27 04:52:25;;;;;;;14.90;8.88;;;-3.10;99.90;;;;;;5072254;28;20029;-82
2024/01/27 04:54:51;;;;;;;19.35;13.25;;;-3.20;99.90;;;;;;5058649;28;20025;-83
2024/01/27 04:57:17;;;;;;;18.98;11.60;;;-3.30;99.90;;;;;;5078160;28;20089;-82
2024/01/27 04:59:43;;;;;;;19.52;10.75;;;-3.40;99.90;;;;;;5067286;28;20075;-83
2024/01/27 05:02:10;;;;;;;21.05;12.20;;;-3.30;99.90;;;;;;5076030;28;20443;-81
2024/01/27 05:04:37;;;;;;;16.97;10.17;;;-3.40;99.90;;;;;;5086653;28;20031;-80
2024/01/27 05:07:06;;;;;;;16.92;9.52;;;-3.40;99.90;;;;;;5077990;28;20084;-82
2024/01/27 05:09:33;;;;;;;19.05;12.70;;;-3.40;99.90;;;;;;5073201;28;20048;-81
2024/01/27 05:12:00;;;;;;;19.42;10.82;;;-3.50;99.90;;;;;;5069488;28;20090;-82
2024/01/27 05:14:26;;;;;;;18.85;10.73;;;-3.50;99.90;;;;;;5074156;28;20020;-83
2024/01/27 05:16:52;;;;;;;18.38;11.30;;;-3.50;99.90;;;;;;5079418;28;20029;-85
2024/01/27 05:19:18;;;;;;;20.23;14.25;;;-3.60;99.90;;;;;;5078360;28;20025;-86
2024/01/27 05:21:44;;;;;;;20.65;9.88;;;-3.60;99.90;;;;;;5075014;28;20362;-85
2024/01/27 05:24:11;;;;;;;19.30;11.75;;;-3.70;99.90;;;;;;5071716;28;20118;-84
2024/01/27 05:26:37;;;;;;;20.88;11.82;;;-3.80;99.90;;;;;;5067132;28;20126;-85
2024/01/27 05:29:03;;;;;;;20.45;12.48;;;-3.80;99.90;;;;;;5070761;28;20195;-85
2024/01/27 05:31:28;;;;;;;22.02;13.25;;;-3.80;99.90;;;;;;5074441;28;20100;-83
2024/01/27 05:33:55;;;;;;;32.05;12.38;;;-3.70;99.90;;;;;;5074320;28;20481;-86
2024/01/27 05:36:20;;;;;;;19.85;12.93;;;-3.60;99.90;;;;;;5074997;28;20430;-86
2024/01/27 05:38:49;;;;;;;21.45;10.77;;;-3.60;99.90;;;;;;5073439;28;20021;-86
2024/01/27 05:41:15;;;;;;;18.40;11.75;;;-3.60;99.90;;;;;;5075103;28;20028;-86
2024/01/27 05:43:40;;;;;;;21.77;12.13;;;-3.70;99.90;;;;;;5073364;28;20046;-85
2024/01/27 05:46:11;;;;;;;19.10;11.32;;;-3.60;99.90;;;;;;5075038;28;20481;-85
2024/01/27 05:48:37;;;;;;;17.92;11.05;;;-3.60;99.90;;;;;;5075080;28;20711;-84
2024/01/27 05:51:03;;;;;;;21.38;13.80;;;-3.60;99.90;;;;;;5087557;28;20021;-86
2024/01/27 05:53:29;;;;;;;20.17;11.75;;;-3.60;99.90;;;;;;5072627;28;20094;-82
2024/01/27 05:55:56;;;;;;;21.27;12.27;;;-3.60;99.90;;;;;;5072411;28;20024;-83
2024/01/27 05:58:22;;;;;;;;;;;-3.60;99.90;;;;;;5071529;28;20441;-83
2024/01/27 06:00:48;;;;;;;19.40;10.27;;;-3.60;99.90;;;;;;5067747;28;19904;-83
2024/01/27 06:03:15;;;;;;;22.52;11.93;;;-3.60;99.90;;;;;;5075044;28;20025;-82
2024/01/27 06:05:43;;;;;;;27.85;14.40;;;-3.60;99.90;;;;;;5068317;28;20052;-83
2024/01/27 06:08:09;;;;;;;29.15;14.57;;;-3.60;99.90;;;;;;5072805;28;20098;-83
2024/01/27 06:10:38;;;;;;;24.63;14.50;;;-3.50;99.90;;;;;;5085428;28;20069;-83
2024/01/27 06:13:04;;;;;;;20.30;12.93;;;-3.50;99.90;;;;;;5077462;28;20104;-85
2024/01/27 06:15:30;;;;;;;22.63;14.77;;;-3.40;99.90;;;;;;5073172;28;20485;-84
2024/01/27 06:17:57;;;;;;;25.08;13.75;;;-3.40;99.90;;;;;;5074467;28;20423;-84
2024/01/27 06:20:23;;;;;;;23.93;13.67;;;-3.30;99.90;;;;;;5075116;28;20032;-84
2024/01/27 06:22:49;;;;;;;27.20;13.90;;;-3.30;99.90;;;;;;5071479;28;20308;-85
2024/01/27 06:25:16;;;;;;;23.95;13.05;;;-3.20;99.90;;;;;;5073652;28;20441;-85
2024/01/27 06:27:42;;;;;;;23.02;13.77;;;-3.20;99.90;;;;;;5073617;28;20032;-85
2024/01/27 06:30:10;;;;;;;24.88;14.95;;;-3.20;99.90;;;;;;5061508;28;20547;-83
2024/01/27 06:32:36;;;;;;;26.35;15.40;;;-3.10;99.90;;;;;;5073947;28;20139;-84
2024/01/27 06:35:04;;;;;;;26.70;14.70;;;-3.10;99.90;;;;;;5084678;28;20038;-84
2024/01/27 06:37:30;;;;;;;24.15;15.25;;;-3.10;99.90;;;;;;5066632;28;20149;-84
2024/01/27 06:39:56;;;;;;;23.27;14.85;;;-3.10;99.90;;;;;;5072730;28;20048;-85
2024/01/27 06:42:22;;;;;;;31.23;17.80;;;-3.00;99.90;;;;;;5075465;28;20028;-85
2024/01/27 06:44:47;;;;;;;29.65;15.48;;;-3.10;99.90;;;;;;5074095;28;20028;-86
2024/01/27 06:47:14;;;;;;;26.35;15.70;;;-3.10;99.90;;;;;;5073875;28;20024;-86
2024/01/27 06:49:40;;;;;;;25.33;14.85;;;-3.10;99.90;;;;;;5073845;28;20036;-86
2024/01/27 06:52:05;;;;;;;24.02;15.27;;;-3.10;99.90;;;;;;5089542;28;20021;-84
2024/01/27 06:54:31;;;;;;;32.28;16.92;;;-3.10;99.90;;;;;;5074412;28;20029;-83
2024/01/27 06:57:00;;;;;;;28.63;18.73;;;-3.00;99.90;;;;;;5074323;28;20020;-83
2024/01/27 06:59:26;;;;;;;30.52;16.30;;;-3.00;99.90;;;;;;5061796;28;20025;-85
2024/01/27 07:01:55;;;;;;;24.92;16.15;;;-3.10;99.90;;;;;;5074848;28;20107;-83
2024/01/27 07:04:21;;;;;;;25.08;14.48;;;-3.00;99.90;;;;;;5073417;28;20114;-84
2024/01/27 07:06:47;;;;;;;25.92;16.30;;;-3.10;99.90;;;;;;5072743;28;20028;-83
2024/01/27 07:09:13;;;;;;;25.33;15.00;;;-3.20;99.90;;;;;;5074315;28;20080;-84
2024/01/27 07:11:38;;;;;;;31.77;17.70;;;-3.10;99.90;;;;;;5072317;28;20013;-85
2024/01/27 07:14:06;;;;;;;23.95;16.50;;;-3.10;99.90;;;;;;5071063;28;20033;-84
2024/01/27 07:16:33;;;;;;;27.77;15.52;;;-3.20;99.90;;;;;;5072495;28;20078;-83
2024/01/27 07:18:59;;;;;;;26.02;17.25;;;-3.10;99.90;;;;;;5072853;28;20040;-84
2024/01/27 07:21:26;;;;;;;29.75;17.73;;;-3.00;99.90;;;;;;5073554;28;20028;-84
2024/01/27 07:23:53;;;;;;;25.73;16.98;;;-2.90;99.90;;;;;;5071086;28;20036;-84
2024/01/27 07:26:19;;;;;;;30.60;17.52;;;-2.90;99.90;;;;;;5074077;28;20063;-83
2024/01/27 07:28:45;;;;;;;28.52;16.77;;;-2.80;99.90;;;;;;5074948;28;20025;-83
2024/01/27 07:31:12;;;;;;;29.27;16.73;;;-2.70;99.90;;;;;;5070735;28;20028;-81
2024/01/27 07:33:38;;;;;;;27.73;17.42;;;-2.70;99.90;;;;;;5061104;28;20051;-83
2024/01/27 07:36:05;;;;;;;28.13;20.00;;;-2.70;99.90;;;;;;5078298;28;20080;-82
2024/01/27 07:38:36;;;;;;;30.52;17.55;;;-2.70;99.90;;;;;;5076947;28;20111;-83
2024/01/27 07:41:02;;;;;;;30.50;18.52;;;-2.70;99.90;;;;;;5073091;28;20056;-82
2024/01/27 07:43:28;;;;;;;27.40;17.17;;;-2.70;99.90;;;;;;5059063;28;20116;-83
2024/01/27 07:45:54;;;;;;;36.67;18.45;;;-2.60;99.90;;;;;;5078472;28;20024;-84
2024/01/27 07:48:20;;;;;;;27.30;16.00;;;-2.50;99.90;;;;;;5081337;28;20058;-82
2024/01/27 07:50:48;;;;;;;38.15;18.40;;;-2.50;99.90;;;;;;5082712;28;20059;-84
2024/01/27 07:53:17;;;;;;;33.00;18.00;;;-2.50;99.90;;;;;;5071957;28;20096;-83
2024/01/27 07:55:43;;;;;;;28.75;18.20;;;-2.50;99.90;;;;;;5073531;28;20071;-84
2024/01/27 07:58:09;;;;;;;32.58;18.83;;;-2.50;99.90;;;;;;5069022;28;20029;-84
2024/01/27 08:00:35;;;;;;;36.55;21.63;;;-2.50;99.90;;;;;;5069072;28;20027;-85
2024/01/27 08:03:01;;;;;;;28.42;16.98;;;-2.50;99.90;;;;;;5074736;28;20029;-85
2024/01/27 08:05:27;;;;;;;34.65;18.38;;;-2.50;99.90;;;;;;5070156;28;20052;-84
2024/01/27 08:07:53;;;;;;;27.75;17.20;;;-2.40;99.90;;;;;;5070515;28;20052;-84
2024/01/27 08:10:19;;;;;;;29.85;18.35;;;-2.50;99.90;;;;;;5072692;28;20028;-84
2024/01/27 08:12:45;;;;;;;35.92;18.25;;;-2.40;99.90;;;;;;5063721;28;20381;-83
2024/01/27 08:15:11;;;;;;;33.08;17.42;;;-2.40;99.90;;;;;;5071884;28;20020;-83
2024/01/27 08:17:37;;;;;;;36.17;20.50;;;-2.40;99.90;;;;;;5073257;28;20035;-82
2024/01/27 08:20:04;;;;;;;30.13;16.88;;;-2.50;99.90;;;;;;5072992;28;20261;-84
2024/01/27 08:22:29;;;;;;;32.58;20.75;;;-2.40;99.90;;;;;;5069961;28;20025;-81
2024/01/27 08:24:55;;;;;;;34.63;19.02;;;-2.40;99.90;;;;;;5063357;28;20029;-81
2024/01/27 08:27:21;;;;;;;28.00;16.77;;;-2.40;99.90;;;;;;5071649;28;20025;-86
2024/01/27 08:29:47;;;;;;;34.33;19.83;;;-2.40;99.90;;;;;;5072299;28;20393;-85
2024/01/27 08:32:13;;;;;;;27.77;18.38;;;-2.30;99.90;;;;;;5070531;28;20094;-87
2024/01/27 08:34:39;;;;;;;29.90;17.13;;;-2.20;99.90;;;;;;5075405;28;20426;-86
2024/01/27 08:37:22;;;;;;;26.30;15.02;;;-2.10;99.90;;;;;;5063666;28;20025;-88
2024/01/27 08:39:50;;;;;;;30.08;17.42;;;-2.10;99.90;;;;;;5101349;28;20032;-86
2024/01/27 08:42:16;;;;;;;26.95;17.40;;;-2.10;99.90;;;;;;5071877;28;20016;-85
2024/01/27 08:44:42;;;;;;;35.72;17.67;;;-2.10;99.90;;;;;;5070225;28;20103;-85
2024/01/27 08:47:08;;;;;;;24.13;16.15;;;-2.10;99.90;;;;;;5072964;28;20466;-87
2024/01/27 08:49:34;;;;;;;30.48;18.98;;;-2.10;99.90;;;;;;5069111;28;20236;-85
2024/01/27 08:52:00;;;;;;;27.20;18.63;;;-2.10;99.90;;;;;;5073410;28;20025;-86
2024/01/27 08:54:26;;;;;;;29.50;16.65;;;-2.10;99.90;;;;;;5078816;28;20024;-88
2024/01/27 08:56:52;;;;;;;35.70;18.85;;;-2.00;99.70;;;;;;5073485;28;20020;-86
2024/01/27 08:59:18;;;;;;;27.85;17.90;;;-2.00;99.80;;;;;;5061852;28;20024;-85
2024/01/27 09:01:44;;;;;;;25.48;14.48;;;-1.90;99.80;;;;;;5082582;28;20052;-86
2024/01/27 09:04:10;;;;;;;27.52;17.05;;;-1.90;99.70;;;;;;5065781;28;20024;-85
2024/01/27 09:06:45;;;;;;;25.15;13.40;;;-1.80;99.80;;;;;;5068623;28;20040;-86
2024/01/27 09:09:12;;;;;;;30.33;15.48;;;-1.80;99.80;;;;;;5069944;28;20132;-86
2024/01/27 09:11:38;;;;;;;25.02;15.20;;;-1.80;99.90;;;;;;5074317;28;20112;-84
2024/01/27 09:14:05;;;;;;;30.08;16.50;;;-1.80;99.90;;;;;;5074370;28;20048;-86
2024/01/27 09:16:31;;;;;;;32.17;18.25;;;-1.80;99.90;;;;;;5074069;28;20538;-85
2024/01/27 09:18:57;;;;;;;49.55;18.77;;;-1.80;99.90;;;;;;5080001;28;20043;-87
2024/01/27 09:21:28;;;;;;;29.08;16.45;;;-1.80;99.90;;;;;;5075523;28;20025;-85
2024/01/27 09:23:55;;;;;;;33.97;17.13;;;-1.70;99.90;;;;;;5072103;28;20024;-87
2024/01/27 09:26:22;;;;;;;29.40;16.73;;;-1.70;99.60;;;;;;5074337;28;20145;-85
2024/01/27 09:28:54;;;;;;;27.42;16.33;;;-1.70;99.60;;;;;;5075139;28;20037;-85
2024/01/27 09:31:23;;;;;;;32.20;17.90;;;-1.60;99.40;;;;;;5060075;28;20019;-87
2024/01/27 09:33:53;;;;;;;33.97;17.92;;;-1.50;99.30;;;;;;5059361;28;20085;-86
2024/01/27 09:36:20;;;;;;;27.35;17.20;;;-1.50;99.20;;;;;;5070944;28;20508;-87
2024/01/27 09:38:49;;;;;;;28.83;17.23;;;-1.40;98.90;;;;;;5067233;28;20024;-86
2024/01/27 09:41:15;;;;;;;30.08;15.00;;;-1.40;98.60;;;;;;5077577;28;20485;-84
2024/01/27 09:43:45;;;;;;;24.63;15.40;;;-1.40;98.30;;;;;;5081646;28;20051;-83
2024/01/27 09:46:15;;;;;;;30.75;16.20;;;-1.40;98.20;;;;;;5070519;28;20033;-85
2024/01/27 09:48:42;;;;;;;25.73;15.32;;;-1.40;98.50;;;;;;5053268;28;20464;-86
2024/01/27 09:51:10;;;;;;;26.38;15.85;;;-1.50;98.80;;;;;;5071293;28;20012;-86
2024/01/27 09:53:36;;;;;;;25.55;16.60;;;-1.40;98.60;;;;;;5057529;28;20087;-88
2024/01/27 09:56:03;;;;;;;30.13;16.38;;;-1.40;98.80;;;;;;5071213;28;20026;-87
2024/01/27 09:58:30;;;;;;;31.77;19.08;;;-1.40;98.90;;;;;;5067802;28;20029;-83
2024/01/27 10:00:58;;;;;;;33.58;21.55;;;-1.40;98.80;;;;;;5070297;28;20021;-83
2024/01/27 10:03:26;;;;;;;31.02;19.67;;;-1.30;98.80;;;;;;5065002;28;20485;-86
2024/01/27 10:05:53;;;;;;;31.48;19.75;;;-1.30;98.60;;;;;;5072201;28;20401;-84
2024/01/27 10:08:23;;;;;;;26.45;18.95;;;-1.30;98.30;;;;;;5075438;28;20059;-82
2024/01/27 10:10:56;;;;;;;33.65;18.88;;;-1.20;98.30;;;;;;5074403;28;20130;-86
2024/01/27 10:13:26;;;;;;;31.33;18.23;;;-1.30;98.20;;;;;;5075918;28;20056;-88
2024/01/27 10:16:12;;;;;;;27.95;18.52;;;-1.20;98.20;;;;;;5078988;28;20016;-90
2024/01/27 10:18:38;;;;;;;27.50;17.20;;;-1.20;98.10;;;;;;5078247;28;20017;-92
2024/01/27 10:21:18;;;;;;;28.48;18.13;;;-1.20;98.10;;;;;;5076598;28;20025;-93
2024/01/27 10:23:44;;;;;;;34.60;17.80;;;-1.30;97.80;;;;;;5079893;28;20047;-93
2024/01/27 10:26:11;;;;;;;38.00;19.63;;;-1.30;97.90;;;;;;5089100;28;20036;-88
2024/01/27 10:28:37;;;;;;;39.23;21.30;;;-1.30;97.80;;;;;;5074990;28;20093;-81
2024/01/27 10:31:12;;;;;;;34.50;18.67;;;-1.40;98.00;;;;;;5054337;28;20413;-80
2024/01/27 10:33:39;;;;;;;30.95;18.67;;;-1.40;98.00;;;;;;5072023;28;20058;-80
2024/01/27 10:36:05;;;;;;;32.50;20.35;;;-1.50;97.60;;;;;;5074869;28;20028;-81
2024/01/27 10:38:40;;;;;;;34.13;19.60;;;-1.60;97.70;;;;;;5071372;28;20430;-81
2024/01/27 10:41:10;;;;;;;31.40;20.23;;;-1.70;98.10;;;;;;5057448;28;20047;-83
2024/01/27 10:43:39;;;;;;;30.80;18.52;;;-1.70;98.40;;;;;;5070407;28;20037;-80
2024/01/27 10:46:08;;;;;;;29.63;18.13;;;-1.70;98.60;;;;;;5069684;28;20505;-78
2024/01/27 10:48:39;;;;;;;33.65;17.67;;;-1.60;98.50;;;;;;5066992;28;20036;-76
2024/01/27 10:51:09;;;;;;;28.27;15.73;;;-1.70;98.10;;;;;;5049060;28;20036;-78
2024/01/27 10:53:37;;;;;;;26.00;15.30;;;-1.80;97.70;;;;;;5068369;28;20029;-79
2024/01/27 10:56:08;;;;;;;22.60;14.60;;;-1.80;98.00;;;;;;5052948;28;20128;-80
2024/01/27 10:58:40;;;;;;;25.00;16.13;;;-1.80;98.20;;;;;;5069948;28;20024;-77
2024/01/27 11:01:09;;;;;;;30.60;18.15;;;-1.80;98.40;;;;;;5071191;28;20032;-79
2024/01/27 11:03:38;;;;;;;29.70;18.10;;;-1.80;98.40;;;;;;5067001;28;20040;-78
2024/01/27 11:06:06;;;;;;;28.33;15.23;;;-1.80;98.40;;;;;;5071285;28;20157;-78
2024/01/27 11:08:34;;;;;;;31.73;16.77;;;-1.70;98.60;;;;;;5071282;28;20102;-78
2024/01/27 11:11:03;;;;;;;30.17;18.90;;;-1.70;98.10;;;;;;5063336;28;20024;-78
2024/01/27 11:13:30;;;;;;;30.27;19.85;;;-1.70;98.20;;;;;;5072232;28;20029;-80
2024/01/27 11:16:00;;;;;;;28.98;19.92;;;-1.70;98.10;;;;;;5068899;28;20028;-80
2024/01/27 11:18:26;;;;;;;38.08;21.98;;;-1.70;98.30;;;;;;5068980;28;20021;-77
2024/01/27 11:20:58;;;;;;;34.20;22.23;;;-1.70;98.30;;;;;;5071433;28;20040;-80
2024/01/27 11:23:33;;;;;;;35.28;22.48;;;-1.70;98.10;;;;;;5071115;28;20489;-87
2024/01/27 11:26:10;;;;;;;37.90;23.35;;;-1.70;98.10;;;;;;5071400;28;20025;-88
2024/01/27 11:28:37;;;;;;;32.50;19.80;;;-1.70;98.20;;;;;;5068606;28;20024;-91
2024/01/27 11:31:07;;;;;;;36.47;21.70;;;-1.70;98.40;;;;;;5070795;28;20619;-88
2024/01/27 11:33:33;;;;;;;40.17;25.67;;;-1.70;98.70;;;;;;5071273;28;20036;-88
2024/01/27 11:36:06;;;;;;;35.15;20.35;;;-1.80;98.80;;;;;;5073319;28;20024;-88
2024/01/27 11:38:32;;;;;;;38.72;24.65;;;-1.90;99.10;;;;;;5060142;28;20074;-88
2024/01/27 11:41:01;;;;;;;39.13;23.97;;;-2.00;99.20;;;;;;5062471;28;20086;-90
2024/01/27 11:43:27;;;;;;;44.40;27.92;;;-2.00;99.10;;;;;;5062861;28;20250;-89
2024/01/27 11:46:00;;;;;;;44.25;24.58;;;-2.10;99.20;;;;;;5073771;28;20379;-87
2024/01/27 11:48:28;;;;;;;31.98;20.48;;;-2.00;99.30;;;;;;5074146;28;20029;-88
2024/01/27 11:51:10;;;;;;;37.35;23.40;;;-2.10;99.60;;;;;;5073221;28;20497;-86
2024/01/27 11:53:37;;;;;;;35.70;21.70;;;-2.20;99.40;;;;;;5072802;28;20028;-87
2024/01/27 11:56:04;;;;;;;41.28;24.83;;;-2.30;99.20;;;;;;5079647;28;20081;-87
2024/01/27 11:58:30;;;;;;;;;;;-2.40;99.30;;;;;;5063877;28;20378;-87
2024/01/27 12:00:58;;;;;;;36.83;22.45;;;-2.40;99.40;;;;;;5089386;28;20369;-87
2024/01/27 12:03:24;;;;;;;;;;;-2.40;99.60;;;;;;5079679;28;20025;-87
2024/01/27 12:05:50;;;;;;;36.28;22.40;;;-2.40;99.80;;;;;;5084007;28;19904;-89
2024/01/27 12:08:17;;;;;;;32.70;19.23;;;-2.30;99.60;;;;;;5086376;28;20032;-91
2024/01/27 12:10:43;;;;;;;39.58;22.48;;;-2.40;99.80;;;;;;5083335;28;20079;-85
2024/01/27 12:13:09;;;;;;;35.97;20.88;;;-2.40;99.90;;;;;;5086998;28;20462;-86
2024/01/27 12:15:36;;;;;;;39.13;22.45;;;-2.40;99.90;;;;;;5069832;28;20012;-87
2024/01/27 12:18:04;;;;;;;33.53;22.85;;;-2.40;99.90;;;;;;5073837;28;20039;-86
2024/01/27 12:20:30;;;;;;;36.75;23.35;;;-2.50;99.80;;;;;;5079912;28;20024;-87
2024/01/27 12:23:08;;;;;;;35.42;15.20;;;-2.50;99.70;;;;;;5078078;28;20017;-88
2024/01/27 12:25:34;;;;;;;36.28;21.60;;;-2.40;99.90;;;;;;5072863;28;20086;-89
2024/01/27 12:28:04;;;;;;;34.15;20.45;;;-2.40;99.90;;;;;;5071638;28;20115;-86